sensor_id;sensor_type;location;lat;lon;timestamp;P1;durP1;ratioP1;P2;durP2;ratioP2
261;SDS011;114;48.260;10.988;2023-04-06T00:01:37;6.47;;;5.87;;
261;SDS011;114;48.260;10.988;2023-04-06T00:04:03;6.97;;;6.00;;
261;SDS011;114;48.260;10.988;2023-04-06T00:06:30;6.70;;;6.03;;
261;SDS011;114;48.260;10.988;2023-04-06T00:08:57;8.43;;;6.63;;
261;SDS011;114;48.260;10.988;2023-04-06T00:11:23;8.63;;;7.33;;
261;SDS011;114;48.260;10.988;2023-04-06T00:13:50;8.03;;;7.23;;
261;SDS011;114;48.260;10.988;2023-04-06T00:16:15;8.60;;;6.53;;
261;SDS011;114;48.260;10.988;2023-04-06T00:18:41;7.47;;;6.77;;
261;SDS011;114;48.260;10.988;2023-04-06T00:21:07;11.93;;;8.30;;
261;SDS011;114;48.260;10.988;2023-04-06T00:23:33;8.33;;;6.93;;
261;SDS011;114;48.260;10.988;2023-04-06T00:25:59;7.77;;;6.73;;
261;SDS011;114;48.260;10.988;2023-04-06T00:28:25;10.90;;;7.40;;
261;SDS011;114;48.260;10.988;2023-04-06T00:30:54;7.43;;;6.63;;
261;SDS011;114;48.260;10.988;2023-04-06T00:33:20;7.93;;;6.90;;
261;SDS011;114;48.260;10.988;2023-04-06T00:35:49;7.77;;;6.93;;
261;SDS011;114;48.260;10.988;2023-04-06T00:38:15;7.90;;;7.10;;
261;SDS011;114;48.260;10.988;2023-04-06T00:40:42;7.60;;;6.83;;
261;SDS011;114;48.260;10.988;2023-04-06T00:43:12;9.70;;;7.40;;
261;SDS011;114;48.260;10.988;2023-04-06T00:45:38;9.17;;;7.90;;
261;SDS011;114;48.260;10.988;2023-04-06T00:48:06;9.37;;;7.87;;
261;SDS011;114;48.260;10.988;2023-04-06T00:50:32;10.07;;;7.47;;
261;SDS011;114;48.260;10.988;2023-04-06T00:52:58;6.03;;;5.53;;
261;SDS011;114;48.260;10.988;2023-04-06T00:55:25;12.90;;;7.20;;
261;SDS011;114;48.260;10.988;2023-04-06T00:57:52;9.53;;;7.07;;
261;SDS011;114;48.260;10.988;2023-04-06T01:00:18;9.37;;;7.40;;
261;SDS011;114;48.260;10.988;2023-04-06T01:02:43;8.53;;;7.00;;
261;SDS011;114;48.260;10.988;2023-04-06T01:05:13;8.17;;;7.30;;
261;SDS011;114;48.260;10.988;2023-04-06T01:07:39;8.03;;;7.23;;
261;SDS011;114;48.260;10.988;2023-04-06T01:10:05;11.30;;;7.33;;
261;SDS011;114;48.260;10.988;2023-04-06T01:12:31;9.40;;;6.80;;
261;SDS011;114;48.260;10.988;2023-04-06T01:14:57;7.63;;;6.43;;
261;SDS011;114;48.260;10.988;2023-04-06T01:17:23;7.83;;;7.13;;
261;SDS011;114;48.260;10.988;2023-04-06T01:19:49;7.27;;;6.57;;
261;SDS011;114;48.260;10.988;2023-04-06T01:22:16;9.30;;;6.87;;
261;SDS011;114;48.260;10.988;2023-04-06T01:24:42;6.77;;;6.27;;
261;SDS011;114;48.260;10.988;2023-04-06T01:27:08;6.57;;;5.97;;
261;SDS011;114;48.260;10.988;2023-04-06T01:29:34;8.90;;;7.97;;
261;SDS011;114;48.260;10.988;2023-04-06T01:32:00;6.83;;;6.23;;
261;SDS011;114;48.260;10.988;2023-04-06T01:34:26;7.73;;;6.10;;
261;SDS011;114;48.260;10.988;2023-04-06T01:36:51;9.63;;;6.83;;
261;SDS011;114;48.260;10.988;2023-04-06T01:39:17;7.87;;;7.13;;
261;SDS011;114;48.260;10.988;2023-04-06T01:41:44;8.13;;;6.60;;
261;SDS011;114;48.260;10.988;2023-04-06T01:44:12;7.77;;;6.87;;
261;SDS011;114;48.260;10.988;2023-04-06T01:46:38;7.23;;;6.63;;
261;SDS011;114;48.260;10.988;2023-04-06T01:49:03;9.20;;;6.37;;
261;SDS011;114;48.260;10.988;2023-04-06T01:51:29;7.67;;;6.90;;
261;SDS011;114;48.260;10.988;2023-04-06T01:53:56;7.50;;;6.70;;
261;SDS011;114;48.260;10.988;2023-04-06T01:56:21;8.37;;;7.50;;
261;SDS011;114;48.260;10.988;2023-04-06T01:58:47;9.40;;;7.10;;
261;SDS011;114;48.260;10.988;2023-04-06T02:01:13;11.37;;;7.60;;
261;SDS011;114;48.260;10.988;2023-04-06T02:03:38;10.33;;;6.70;;
261;SDS011;114;48.260;10.988;2023-04-06T02:06:04;8.90;;;7.10;;
261;SDS011;114;48.260;10.988;2023-04-06T02:08:30;8.27;;;7.47;;
261;SDS011;114;48.260;10.988;2023-04-06T02:10:56;10.00;;;7.37;;
261;SDS011;114;48.260;10.988;2023-04-06T02:13:22;9.77;;;8.00;;
261;SDS011;114;48.260;10.988;2023-04-06T02:15:47;9.43;;;7.70;;
261;SDS011;114;48.260;10.988;2023-04-06T02:18:13;7.23;;;6.60;;
261;SDS011;114;48.260;10.988;2023-04-06T02:20:39;8.33;;;7.47;;
261;SDS011;114;48.260;10.988;2023-04-06T02:23:04;8.73;;;7.93;;
261;SDS011;114;48.260;10.988;2023-04-06T02:25:30;8.90;;;7.27;;
261;SDS011;114;48.260;10.988;2023-04-06T02:27:56;14.57;;;7.90;;
261;SDS011;114;48.260;10.988;2023-04-06T02:30:22;10.73;;;7.53;;
261;SDS011;114;48.260;10.988;2023-04-06T02:32:47;9.07;;;7.13;;
261;SDS011;114;48.260;10.988;2023-04-06T02:35:13;7.53;;;6.90;;
261;SDS011;114;48.260;10.988;2023-04-06T02:37:39;8.43;;;7.30;;
261;SDS011;114;48.260;10.988;2023-04-06T02:40:05;7.60;;;6.77;;
261;SDS011;114;48.260;10.988;2023-04-06T02:42:31;8.07;;;7.23;;
261;SDS011;114;48.260;10.988;2023-04-06T02:44:57;8.00;;;7.30;;
261;SDS011;114;48.260;10.988;2023-04-06T02:47:23;8.23;;;7.53;;
261;SDS011;114;48.260;10.988;2023-04-06T02:49:49;10.37;;;7.10;;
261;SDS011;114;48.260;10.988;2023-04-06T02:52:15;14.43;;;7.67;;
261;SDS011;114;48.260;10.988;2023-04-06T02:54:42;10.10;;;7.93;;
261;SDS011;114;48.260;10.988;2023-04-06T02:57:08;11.20;;;6.90;;
261;SDS011;114;48.260;10.988;2023-04-06T02:59:34;17.13;;;7.17;;
261;SDS011;114;48.260;10.988;2023-04-06T03:02:00;9.17;;;7.97;;
261;SDS011;114;48.260;10.988;2023-04-06T03:04:26;9.30;;;8.40;;
261;SDS011;114;48.260;10.988;2023-04-06T03:06:51;10.83;;;7.77;;
261;SDS011;114;48.260;10.988;2023-04-06T03:09:18;8.87;;;8.07;;
261;SDS011;114;48.260;10.988;2023-04-06T03:11:44;9.00;;;7.50;;
261;SDS011;114;48.260;10.988;2023-04-06T03:14:10;12.10;;;7.63;;
261;SDS011;114;48.260;10.988;2023-04-06T03:16:36;9.10;;;7.77;;
261;SDS011;114;48.260;10.988;2023-04-06T03:19:02;7.40;;;6.67;;
261;SDS011;114;48.260;10.988;2023-04-06T03:21:27;7.20;;;6.60;;
261;SDS011;114;48.260;10.988;2023-04-06T03:23:53;7.00;;;6.27;;
261;SDS011;114;48.260;10.988;2023-04-06T03:26:19;8.20;;;6.87;;
261;SDS011;114;48.260;10.988;2023-04-06T03:28:45;7.17;;;6.40;;
261;SDS011;114;48.260;10.988;2023-04-06T03:31:10;11.37;;;6.97;;
261;SDS011;114;48.260;10.988;2023-04-06T03:33:36;10.03;;;6.87;;
261;SDS011;114;48.260;10.988;2023-04-06T03:36:02;7.57;;;6.67;;
261;SDS011;114;48.260;10.988;2023-04-06T03:38:29;9.50;;;6.93;;
261;SDS011;114;48.260;10.988;2023-04-06T03:40:54;9.93;;;6.80;;
261;SDS011;114;48.260;10.988;2023-04-06T03:43:20;9.03;;;6.73;;
261;SDS011;114;48.260;10.988;2023-04-06T03:45:46;6.80;;;6.00;;
261;SDS011;114;48.260;10.988;2023-04-06T03:48:11;8.20;;;7.10;;
261;SDS011;114;48.260;10.988;2023-04-06T03:50:37;7.87;;;6.57;;
261;SDS011;114;48.260;10.988;2023-04-06T03:53:03;7.60;;;6.90;;
261;SDS011;114;48.260;10.988;2023-04-06T03:55:29;10.50;;;7.40;;
261;SDS011;114;48.260;10.988;2023-04-06T03:57:55;7.20;;;6.50;;
261;SDS011;114;48.260;10.988;2023-04-06T04:00:21;8.30;;;7.10;;
261;SDS011;114;48.260;10.988;2023-04-06T04:02:46;7.90;;;7.10;;
261;SDS011;114;48.260;10.988;2023-04-06T04:05:12;13.50;;;7.63;;
261;SDS011;114;48.260;10.988;2023-04-06T04:07:38;7.63;;;6.93;;
261;SDS011;114;48.260;10.988;2023-04-06T04:10:04;8.50;;;6.97;;
261;SDS011;114;48.260;10.988;2023-04-06T04:12:30;8.40;;;7.60;;
261;SDS011;114;48.260;10.988;2023-04-06T04:14:55;9.23;;;7.37;;
261;SDS011;114;48.260;10.988;2023-04-06T04:17:21;9.60;;;7.93;;
261;SDS011;114;48.260;10.988;2023-04-06T04:19:47;7.67;;;6.90;;
261;SDS011;114;48.260;10.988;2023-04-06T04:22:13;8.20;;;7.30;;
261;SDS011;114;48.260;10.988;2023-04-06T04:24:38;7.77;;;7.07;;
261;SDS011;114;48.260;10.988;2023-04-06T04:27:04;8.93;;;6.90;;
261;SDS011;114;48.260;10.988;2023-04-06T04:29:30;7.80;;;6.77;;
261;SDS011;114;48.260;10.988;2023-04-06T04:31:56;25.97;;;6.87;;
261;SDS011;114;48.260;10.988;2023-04-06T04:34:21;7.50;;;6.80;;
261;SDS011;114;48.260;10.988;2023-04-06T04:36:51;6.90;;;6.10;;
261;SDS011;114;48.260;10.988;2023-04-06T04:39:17;11.00;;;8.60;;
261;SDS011;114;48.260;10.988;2023-04-06T04:41:43;10.40;;;6.77;;
261;SDS011;114;48.260;10.988;2023-04-06T04:44:08;8.20;;;6.40;;
261;SDS011;114;48.260;10.988;2023-04-06T04:46:34;8.20;;;6.83;;
261;SDS011;114;48.260;10.988;2023-04-06T04:49:00;8.17;;;7.37;;
261;SDS011;114;48.260;10.988;2023-04-06T04:51:26;10.30;;;6.83;;
261;SDS011;114;48.260;10.988;2023-04-06T04:53:52;15.00;;;7.23;;
261;SDS011;114;48.260;10.988;2023-04-06T04:56:17;7.60;;;6.73;;
261;SDS011;114;48.260;10.988;2023-04-06T04:58:43;8.50;;;7.00;;
261;SDS011;114;48.260;10.988;2023-04-06T05:01:09;6.60;;;5.97;;
261;SDS011;114;48.260;10.988;2023-04-06T05:03:35;13.83;;;7.40;;
261;SDS011;114;48.260;10.988;2023-04-06T05:06:04;10.23;;;9.13;;
261;SDS011;114;48.260;10.988;2023-04-06T05:08:30;11.37;;;8.30;;
261;SDS011;114;48.260;10.988;2023-04-06T05:10:56;8.13;;;7.30;;
261;SDS011;114;48.260;10.988;2023-04-06T05:13:22;9.63;;;8.70;;
261;SDS011;114;48.260;10.988;2023-04-06T05:15:48;8.77;;;7.17;;
261;SDS011;114;48.260;10.988;2023-04-06T05:18:14;13.23;;;7.20;;
261;SDS011;114;48.260;10.988;2023-04-06T05:20:40;11.00;;;7.50;;
261;SDS011;114;48.260;10.988;2023-04-06T05:23:07;8.37;;;7.30;;
261;SDS011;114;48.260;10.988;2023-04-06T05:25:33;7.47;;;6.70;;
261;SDS011;114;48.260;10.988;2023-04-06T05:27:58;9.97;;;7.83;;
261;SDS011;114;48.260;10.988;2023-04-06T05:30:24;8.80;;;7.57;;
261;SDS011;114;48.260;10.988;2023-04-06T05:32:50;9.37;;;8.10;;
261;SDS011;114;48.260;10.988;2023-04-06T05:35:16;11.77;;;8.00;;
261;SDS011;114;48.260;10.988;2023-04-06T05:37:42;8.43;;;7.63;;
261;SDS011;114;48.260;10.988;2023-04-06T05:40:08;10.43;;;7.60;;
261;SDS011;114;48.260;10.988;2023-04-06T05:42:40;14.17;;;8.50;;
261;SDS011;114;48.260;10.988;2023-04-06T05:45:10;9.57;;;7.33;;
261;SDS011;114;48.260;10.988;2023-04-06T05:47:42;23.33;;;9.10;;
261;SDS011;114;48.260;10.988;2023-04-06T05:50:11;14.60;;;9.03;;
261;SDS011;114;48.260;10.988;2023-04-06T05:52:37;14.53;;;9.50;;
261;SDS011;114;48.260;10.988;2023-04-06T05:55:03;16.50;;;9.83;;
261;SDS011;114;48.260;10.988;2023-04-06T05:57:30;13.10;;;9.67;;
261;SDS011;114;48.260;10.988;2023-04-06T05:59:55;11.87;;;8.90;;
261;SDS011;114;48.260;10.988;2023-04-06T06:02:21;23.93;;;8.43;;
261;SDS011;114;48.260;10.988;2023-04-06T06:04:47;14.73;;;9.03;;
261;SDS011;114;48.260;10.988;2023-04-06T06:07:16;12.33;;;8.50;;
261;SDS011;114;48.260;10.988;2023-04-06T06:09:42;10.00;;;8.40;;
261;SDS011;114;48.260;10.988;2023-04-06T06:12:07;13.47;;;8.87;;
261;SDS011;114;48.260;10.988;2023-04-06T06:14:33;11.23;;;8.80;;
261;SDS011;114;48.260;10.988;2023-04-06T06:16:59;12.43;;;9.07;;
261;SDS011;114;48.260;10.988;2023-04-06T06:19:25;14.60;;;9.47;;
261;SDS011;114;48.260;10.988;2023-04-06T06:21:51;10.40;;;9.40;;
261;SDS011;114;48.260;10.988;2023-04-06T06:24:16;10.10;;;8.30;;
261;SDS011;114;48.260;10.988;2023-04-06T06:26:42;11.40;;;8.33;;
261;SDS011;114;48.260;10.988;2023-04-06T06:29:08;19.13;;;8.50;;
261;SDS011;114;48.260;10.988;2023-04-06T06:31:34;21.07;;;9.87;;
261;SDS011;114;48.260;10.988;2023-04-06T06:34:00;21.30;;;10.13;;
261;SDS011;114;48.260;10.988;2023-04-06T06:36:27;13.23;;;8.53;;
261;SDS011;114;48.260;10.988;2023-04-06T06:38:53;11.57;;;9.40;;
261;SDS011;114;48.260;10.988;2023-04-06T06:41:18;11.57;;;9.03;;
261;SDS011;114;48.260;10.988;2023-04-06T06:43:44;14.13;;;8.40;;
261;SDS011;114;48.260;10.988;2023-04-06T06:46:10;11.73;;;8.37;;
261;SDS011;114;48.260;10.988;2023-04-06T06:48:36;11.00;;;8.70;;
261;SDS011;114;48.260;10.988;2023-04-06T06:51:01;12.87;;;9.10;;
261;SDS011;114;48.260;10.988;2023-04-06T06:53:27;10.27;;;7.77;;
261;SDS011;114;48.260;10.988;2023-04-06T06:55:53;9.83;;;8.20;;
261;SDS011;114;48.260;10.988;2023-04-06T06:58:20;11.00;;;9.43;;
261;SDS011;114;48.260;10.988;2023-04-06T07:00:46;12.27;;;8.00;;
261;SDS011;114;48.260;10.988;2023-04-06T07:03:11;21.63;;;9.10;;
261;SDS011;114;48.260;10.988;2023-04-06T07:05:37;10.20;;;7.67;;
261;SDS011;114;48.260;10.988;2023-04-06T07:08:03;8.07;;;6.83;;
261;SDS011;114;48.260;10.988;2023-04-06T07:10:29;13.67;;;6.77;;
261;SDS011;114;48.260;10.988;2023-04-06T07:12:55;18.60;;;7.30;;
261;SDS011;114;48.260;10.988;2023-04-06T07:15:21;9.57;;;7.37;;
261;SDS011;114;48.260;10.988;2023-04-06T07:17:47;12.60;;;8.40;;
261;SDS011;114;48.260;10.988;2023-04-06T07:20:13;13.07;;;7.87;;
261;SDS011;114;48.260;10.988;2023-04-06T07:22:39;13.17;;;8.50;;
261;SDS011;114;48.260;10.988;2023-04-06T07:25:05;11.77;;;10.37;;
261;SDS011;114;48.260;10.988;2023-04-06T07:27:31;16.57;;;11.20;;
261;SDS011;114;48.260;10.988;2023-04-06T07:29:57;14.97;;;11.07;;
261;SDS011;114;48.260;10.988;2023-04-06T07:32:23;14.70;;;10.50;;
261;SDS011;114;48.260;10.988;2023-04-06T07:34:49;9.03;;;7.17;;
261;SDS011;114;48.260;10.988;2023-04-06T07:37:14;12.40;;;7.80;;
261;SDS011;114;48.260;10.988;2023-04-06T07:39:40;10.13;;;7.70;;
261;SDS011;114;48.260;10.988;2023-04-06T07:42:06;11.70;;;7.80;;
261;SDS011;114;48.260;10.988;2023-04-06T07:44:32;8.07;;;7.20;;
261;SDS011;114;48.260;10.988;2023-04-06T07:46:57;7.37;;;6.70;;
261;SDS011;114;48.260;10.988;2023-04-06T07:49:23;10.07;;;6.43;;
261;SDS011;114;48.260;10.988;2023-04-06T07:51:49;7.30;;;6.60;;
261;SDS011;114;48.260;10.988;2023-04-06T07:54:15;9.00;;;6.33;;
261;SDS011;114;48.260;10.988;2023-04-06T07:56:40;13.00;;;7.47;;
261;SDS011;114;48.260;10.988;2023-04-06T07:59:06;7.50;;;6.80;;
261;SDS011;114;48.260;10.988;2023-04-06T08:01:32;8.47;;;7.00;;
261;SDS011;114;48.260;10.988;2023-04-06T08:03:58;8.60;;;5.97;;
261;SDS011;114;48.260;10.988;2023-04-06T08:06:26;12.07;;;7.83;;
261;SDS011;114;48.260;10.988;2023-04-06T08:08:52;13.50;;;7.03;;
261;SDS011;114;48.260;10.988;2023-04-06T08:11:17;10.23;;;7.93;;
261;SDS011;114;48.260;10.988;2023-04-06T08:13:43;7.27;;;6.57;;
261;SDS011;114;48.260;10.988;2023-04-06T08:16:09;13.30;;;7.07;;
261;SDS011;114;48.260;10.988;2023-04-06T08:18:35;7.43;;;6.67;;
261;SDS011;114;48.260;10.988;2023-04-06T08:21:01;8.00;;;7.20;;
261;SDS011;114;48.260;10.988;2023-04-06T08:23:26;10.57;;;8.30;;
261;SDS011;114;48.260;10.988;2023-04-06T08:25:52;11.00;;;6.67;;
261;SDS011;114;48.260;10.988;2023-04-06T08:28:19;9.67;;;7.60;;
261;SDS011;114;48.260;10.988;2023-04-06T08:30:46;8.50;;;6.80;;
261;SDS011;114;48.260;10.988;2023-04-06T08:33:12;8.83;;;7.70;;
261;SDS011;114;48.260;10.988;2023-04-06T08:35:38;9.07;;;7.60;;
261;SDS011;114;48.260;10.988;2023-04-06T08:38:03;8.30;;;7.50;;
261;SDS011;114;48.260;10.988;2023-04-06T08:40:29;11.23;;;7.60;;
261;SDS011;114;48.260;10.988;2023-04-06T08:42:56;16.03;;;7.03;;
261;SDS011;114;48.260;10.988;2023-04-06T08:45:24;14.17;;;7.63;;
261;SDS011;114;48.260;10.988;2023-04-06T08:47:50;7.40;;;6.70;;
261;SDS011;114;48.260;10.988;2023-04-06T08:50:17;10.63;;;7.73;;
261;SDS011;114;48.260;10.988;2023-04-06T08:52:44;11.93;;;8.10;;
261;SDS011;114;48.260;10.988;2023-04-06T08:55:12;12.73;;;8.07;;
261;SDS011;114;48.260;10.988;2023-04-06T08:57:38;8.77;;;7.27;;
261;SDS011;114;48.260;10.988;2023-04-06T09:00:06;11.80;;;7.87;;
261;SDS011;114;48.260;10.988;2023-04-06T09:02:36;12.50;;;8.77;;
261;SDS011;114;48.260;10.988;2023-04-06T09:05:05;11.30;;;8.00;;
261;SDS011;114;48.260;10.988;2023-04-06T09:07:33;17.03;;;9.17;;
261;SDS011;114;48.260;10.988;2023-04-06T09:10:00;13.90;;;8.90;;
261;SDS011;114;48.260;10.988;2023-04-06T09:12:26;10.50;;;7.77;;
261;SDS011;114;48.260;10.988;2023-04-06T09:14:54;19.33;;;8.20;;
261;SDS011;114;48.260;10.988;2023-04-06T09:17:26;9.77;;;7.93;;
261;SDS011;114;48.260;10.988;2023-04-06T09:19:53;11.30;;;8.93;;
261;SDS011;114;48.260;10.988;2023-04-06T09:22:20;9.53;;;8.50;;
261;SDS011;114;48.260;10.988;2023-04-06T09:24:47;11.33;;;8.17;;
261;SDS011;114;48.260;10.988;2023-04-06T09:27:13;10.37;;;8.17;;
261;SDS011;114;48.260;10.988;2023-04-06T09:29:40;12.10;;;8.90;;
261;SDS011;114;48.260;10.988;2023-04-06T09:32:07;17.53;;;9.23;;
261;SDS011;114;48.260;10.988;2023-04-06T09:34:36;10.07;;;8.43;;
261;SDS011;114;48.260;10.988;2023-04-06T09:37:15;12.17;;;8.60;;
261;SDS011;114;48.260;10.988;2023-04-06T09:39:41;9.33;;;7.67;;
261;SDS011;114;48.260;10.988;2023-04-06T09:42:07;10.13;;;8.47;;
261;SDS011;114;48.260;10.988;2023-04-06T09:44:33;11.77;;;9.30;;
261;SDS011;114;48.260;10.988;2023-04-06T09:46:59;10.40;;;8.20;;
261;SDS011;114;48.260;10.988;2023-04-06T09:49:28;9.70;;;7.63;;
261;SDS011;114;48.260;10.988;2023-04-06T09:52:00;9.20;;;8.27;;
261;SDS011;114;48.260;10.988;2023-04-06T09:54:29;11.10;;;8.47;;
261;SDS011;114;48.260;10.988;2023-04-06T09:56:56;10.67;;;8.00;;
261;SDS011;114;48.260;10.988;2023-04-06T09:59:39;18.53;;;8.17;;
261;SDS011;114;48.260;10.988;2023-04-06T10:02:33;11.00;;;8.30;;
261;SDS011;114;48.260;10.988;2023-04-06T10:05:19;10.33;;;7.90;;
261;SDS011;114;48.260;10.988;2023-04-06T10:07:57;12.30;;;10.17;;
261;SDS011;114;48.260;10.988;2023-04-06T10:10:26;12.40;;;8.80;;
261;SDS011;114;48.260;10.988;2023-04-06T10:12:53;10.33;;;8.67;;
261;SDS011;114;48.260;10.988;2023-04-06T10:15:21;9.30;;;8.27;;
261;SDS011;114;48.260;10.988;2023-04-06T10:17:47;10.90;;;8.13;;
261;SDS011;114;48.260;10.988;2023-04-06T10:20:18;9.10;;;7.70;;
261;SDS011;114;48.260;10.988;2023-04-06T10:22:58;9.93;;;8.60;;
261;SDS011;114;48.260;10.988;2023-04-06T10:25:31;11.10;;;9.23;;
261;SDS011;114;48.260;10.988;2023-04-06T10:28:16;10.80;;;9.20;;
261;SDS011;114;48.260;10.988;2023-04-06T10:30:45;10.07;;;7.80;;
261;SDS011;114;48.260;10.988;2023-04-06T10:33:17;10.63;;;9.03;;
261;SDS011;114;48.260;10.988;2023-04-06T10:35:44;12.73;;;9.00;;
261;SDS011;114;48.260;10.988;2023-04-06T10:38:11;11.70;;;8.90;;
261;SDS011;114;48.260;10.988;2023-04-06T10:40:39;12.00;;;7.03;;
261;SDS011;114;48.260;10.988;2023-04-06T10:43:10;7.40;;;6.63;;
261;SDS011;114;48.260;10.988;2023-04-06T10:45:37;6.90;;;6.30;;
261;SDS011;114;48.260;10.988;2023-04-06T10:48:13;7.73;;;6.60;;
261;SDS011;114;48.260;10.988;2023-04-06T10:50:52;7.80;;;6.40;;
261;SDS011;114;48.260;10.988;2023-04-06T10:53:25;9.30;;;6.50;;
261;SDS011;114;48.260;10.988;2023-04-06T10:55:51;6.53;;;5.97;;
261;SDS011;114;48.260;10.988;2023-04-06T10:58:19;6.70;;;6.20;;
261;SDS011;114;48.260;10.988;2023-04-06T11:00:46;7.80;;;6.70;;
261;SDS011;114;48.260;10.988;2023-04-06T11:03:13;7.03;;;6.30;;
261;SDS011;114;48.260;10.988;2023-04-06T11:05:43;11.10;;;7.50;;
261;SDS011;114;48.260;10.988;2023-04-06T11:08:22;7.90;;;7.10;;
261;SDS011;114;48.260;10.988;2023-04-06T11:11:07;8.13;;;7.23;;
261;SDS011;114;48.260;10.988;2023-04-06T11:13:40;7.77;;;6.80;;
261;SDS011;114;48.260;10.988;2023-04-06T11:16:19;10.10;;;6.10;;
261;SDS011;114;48.260;10.988;2023-04-06T11:18:57;7.93;;;7.10;;
261;SDS011;114;48.260;10.988;2023-04-06T11:21:33;19.27;;;8.33;;
261;SDS011;114;48.260;10.988;2023-04-06T11:24:20;7.63;;;6.70;;
261;SDS011;114;48.260;10.988;2023-04-06T11:29:16;7.10;;;6.40;;
261;SDS011;114;48.260;10.988;2023-04-06T11:31:47;8.40;;;6.70;;
261;SDS011;114;48.260;10.988;2023-04-06T11:34:20;5.13;;;4.73;;
261;SDS011;114;48.260;10.988;2023-04-06T11:36:47;11.80;;;7.83;;
261;SDS011;114;48.260;10.988;2023-04-06T11:39:25;6.13;;;5.67;;
261;SDS011;114;48.260;10.988;2023-04-06T11:41:52;7.90;;;5.30;;
261;SDS011;114;48.260;10.988;2023-04-06T11:44:54;5.97;;;5.50;;
261;SDS011;114;48.260;10.988;2023-04-06T11:47:15;6.13;;;5.63;;
261;SDS011;114;48.260;10.988;2023-04-06T11:49:43;9.47;;;6.53;;
261;SDS011;114;48.260;10.988;2023-04-06T11:52:19;8.80;;;5.80;;
261;SDS011;114;48.260;10.988;2023-04-06T11:54:48;6.83;;;5.43;;
261;SDS011;114;48.260;10.988;2023-04-06T11:57:14;9.40;;;7.13;;
261;SDS011;114;48.260;10.988;2023-04-06T11:59:42;7.20;;;6.53;;
261;SDS011;114;48.260;10.988;2023-04-06T12:02:09;8.23;;;6.40;;
261;SDS011;114;48.260;10.988;2023-04-06T12:04:35;7.50;;;5.93;;
261;SDS011;114;48.260;10.988;2023-04-06T12:07:02;9.83;;;8.70;;
261;SDS011;114;48.260;10.988;2023-04-06T12:09:28;12.67;;;8.50;;
261;SDS011;114;48.260;10.988;2023-04-06T12:11:54;12.10;;;7.00;;
261;SDS011;114;48.260;10.988;2023-04-06T12:14:21;8.07;;;7.27;;
261;SDS011;114;48.260;10.988;2023-04-06T12:16:47;7.20;;;6.50;;
261;SDS011;114;48.260;10.988;2023-04-06T12:19:13;10.37;;;6.47;;
261;SDS011;114;48.260;10.988;2023-04-06T12:21:39;5.50;;;5.03;;
261;SDS011;114;48.260;10.988;2023-04-06T12:24:05;6.07;;;5.47;;
261;SDS011;114;48.260;10.988;2023-04-06T12:26:32;8.00;;;5.83;;
261;SDS011;114;48.260;10.988;2023-04-06T12:28:58;14.23;;;5.33;;
261;SDS011;114;48.260;10.988;2023-04-06T12:31:31;6.13;;;5.10;;
261;SDS011;114;48.260;10.988;2023-04-06T12:33:58;4.63;;;4.23;;
261;SDS011;114;48.260;10.988;2023-04-06T12:36:23;7.50;;;5.17;;
261;SDS011;114;48.260;10.988;2023-04-06T12:38:50;4.37;;;3.93;;
261;SDS011;114;48.260;10.988;2023-04-06T12:41:16;5.30;;;4.90;;
261;SDS011;114;48.260;10.988;2023-04-06T12:43:43;5.47;;;5.07;;
261;SDS011;114;48.260;10.988;2023-04-06T12:46:09;19.63;;;4.30;;
261;SDS011;114;48.260;10.988;2023-04-06T12:48:35;5.07;;;4.67;;
261;SDS011;114;48.260;10.988;2023-04-06T12:51:03;5.03;;;4.70;;
261;SDS011;114;48.260;10.988;2023-04-06T12:53:30;4.83;;;4.30;;
261;SDS011;114;48.260;10.988;2023-04-06T12:55:56;6.50;;;5.33;;
261;SDS011;114;48.260;10.988;2023-04-06T12:58:23;7.60;;;5.07;;
261;SDS011;114;48.260;10.988;2023-04-06T13:00:51;6.10;;;5.60;;
261;SDS011;114;48.260;10.988;2023-04-06T13:03:20;5.33;;;4.93;;
261;SDS011;114;48.260;10.988;2023-04-06T13:05:47;7.33;;;5.37;;
261;SDS011;114;48.260;10.988;2023-04-06T13:08:14;7.13;;;6.33;;
261;SDS011;114;48.260;10.988;2023-04-06T13:10:44;6.00;;;5.40;;
261;SDS011;114;48.260;10.988;2023-04-06T13:13:13;5.73;;;5.03;;
261;SDS011;114;48.260;10.988;2023-04-06T13:15:42;6.27;;;5.67;;
261;SDS011;114;48.260;10.988;2023-04-06T13:18:09;6.17;;;5.13;;
261;SDS011;114;48.260;10.988;2023-04-06T13:20:35;5.90;;;5.40;;
261;SDS011;114;48.260;10.988;2023-04-06T13:23:01;5.07;;;4.67;;
261;SDS011;114;48.260;10.988;2023-04-06T13:25:27;8.73;;;5.60;;
261;SDS011;114;48.260;10.988;2023-04-06T13:27:54;5.47;;;4.97;;
261;SDS011;114;48.260;10.988;2023-04-06T13:30:20;6.07;;;5.40;;
261;SDS011;114;48.260;10.988;2023-04-06T13:32:45;5.57;;;5.07;;
261;SDS011;114;48.260;10.988;2023-04-06T13:35:11;6.20;;;5.60;;
261;SDS011;114;48.260;10.988;2023-04-06T13:37:37;5.47;;;4.97;;
261;SDS011;114;48.260;10.988;2023-04-06T13:40:03;6.93;;;5.20;;
261;SDS011;114;48.260;10.988;2023-04-06T13:42:30;5.63;;;5.13;;
261;SDS011;114;48.260;10.988;2023-04-06T13:44:57;5.83;;;5.33;;
261;SDS011;114;48.260;10.988;2023-04-06T13:47:23;6.73;;;5.57;;
261;SDS011;114;48.260;10.988;2023-04-06T13:49:52;6.77;;;6.10;;
261;SDS011;114;48.260;10.988;2023-04-06T13:52:18;7.83;;;5.80;;
261;SDS011;114;48.260;10.988;2023-04-06T13:54:44;5.17;;;4.87;;
261;SDS011;114;48.260;10.988;2023-04-06T13:57:10;6.80;;;5.03;;
261;SDS011;114;48.260;10.988;2023-04-06T13:59:37;4.70;;;4.30;;
261;SDS011;114;48.260;10.988;2023-04-06T14:02:03;13.60;;;9.73;;
261;SDS011;114;48.260;10.988;2023-04-06T14:04:31;7.23;;;5.47;;
261;SDS011;114;48.260;10.988;2023-04-06T14:06:59;5.00;;;4.50;;
261;SDS011;114;48.260;10.988;2023-04-06T14:09:26;12.60;;;5.13;;
261;SDS011;114;48.260;10.988;2023-04-06T14:11:52;4.93;;;4.60;;
261;SDS011;114;48.260;10.988;2023-04-06T14:14:18;7.47;;;5.50;;
261;SDS011;114;48.260;10.988;2023-04-06T14:16:45;4.80;;;4.40;;
261;SDS011;114;48.260;10.988;2023-04-06T14:19:13;5.07;;;4.67;;
261;SDS011;114;48.260;10.988;2023-04-06T14:21:43;14.83;;;5.53;;
261;SDS011;114;48.260;10.988;2023-04-06T14:24:09;5.73;;;4.87;;
261;SDS011;114;48.260;10.988;2023-04-06T14:26:36;4.57;;;4.27;;
261;SDS011;114;48.260;10.988;2023-04-06T14:29:03;4.40;;;4.00;;
261;SDS011;114;48.260;10.988;2023-04-06T14:31:29;6.17;;;4.40;;
261;SDS011;114;48.260;10.988;2023-04-06T14:33:55;8.63;;;4.23;;
261;SDS011;114;48.260;10.988;2023-04-06T14:36:21;4.10;;;3.80;;
261;SDS011;114;48.260;10.988;2023-04-06T14:38:47;3.90;;;3.70;;
261;SDS011;114;48.260;10.988;2023-04-06T14:41:16;4.93;;;4.57;;
261;SDS011;114;48.260;10.988;2023-04-06T14:43:43;4.30;;;4.00;;
261;SDS011;114;48.260;10.988;2023-04-06T14:46:09;5.40;;;5.00;;
261;SDS011;114;48.260;10.988;2023-04-06T14:48:35;5.07;;;4.60;;
261;SDS011;114;48.260;10.988;2023-04-06T14:51:01;5.33;;;4.93;;
261;SDS011;114;48.260;10.988;2023-04-06T14:53:28;5.30;;;4.60;;
261;SDS011;114;48.260;10.988;2023-04-06T14:55:56;5.70;;;5.10;;
261;SDS011;114;48.260;10.988;2023-04-06T14:58:25;6.10;;;5.60;;
261;SDS011;114;48.260;10.988;2023-04-06T15:00:58;5.53;;;4.73;;
261;SDS011;114;48.260;10.988;2023-04-06T15:03:25;5.20;;;4.70;;
261;SDS011;114;48.260;10.988;2023-04-06T15:05:52;5.73;;;4.80;;
261;SDS011;114;48.260;10.988;2023-04-06T15:08:18;5.77;;;4.17;;
261;SDS011;114;48.260;10.988;2023-04-06T15:10:47;5.33;;;4.97;;
261;SDS011;114;48.260;10.988;2023-04-06T15:13:13;5.33;;;4.93;;
261;SDS011;114;48.260;10.988;2023-04-06T15:15:43;4.90;;;4.33;;
261;SDS011;114;48.260;10.988;2023-04-06T15:18:09;4.80;;;4.37;;
261;SDS011;114;48.260;10.988;2023-04-06T15:20:35;4.67;;;4.37;;
261;SDS011;114;48.260;10.988;2023-04-06T15:23:02;4.70;;;4.40;;
261;SDS011;114;48.260;10.988;2023-04-06T15:25:28;5.63;;;4.73;;
261;SDS011;114;48.260;10.988;2023-04-06T15:27:54;5.10;;;4.70;;